createdAt,value
2022-09-14T00:00:43.968Z,18.18
2022-09-14T00:01:45.455Z,18.31
2022-09-14T00:02:47.143Z,18.36
2022-09-14T00:03:52.744Z,18.38
2022-09-14T00:04:54.215Z,18.43
2022-09-14T00:05:55.633Z,18.44
2022-09-14T00:06:57.095Z,18.46
2022-09-14T00:07:58.632Z,18.47
2022-09-14T00:09:00.878Z,18.37
2022-09-14T00:10:02.356Z,18.43
2022-09-14T00:11:07.829Z,18.50
2022-09-14T00:12:09.559Z,18.49
2022-09-14T00:13:12.392Z,18.56
2022-09-14T00:14:14.266Z,18.55
2022-09-14T00:15:15.866Z,18.61
2022-09-14T00:16:20.376Z,18.64
2022-09-14T00:17:21.845Z,18.61
2022-09-14T00:18:23.253Z,18.62
2022-09-14T00:19:26.495Z,18.63
2022-09-14T00:20:27.952Z,18.59
2022-09-14T00:21:29.363Z,18.54
2022-09-14T00:22:30.815Z,18.48
2022-09-14T00:23:34.401Z,18.49
2022-09-14T00:24:35.977Z,18.58
2022-09-14T00:25:37.451Z,18.64
2022-09-14T00:26:40.187Z,18.59
2022-09-14T00:27:41.615Z,18.62
2022-09-14T00:28:45.264Z,18.62
2022-09-14T00:29:47.199Z,18.66
2022-09-14T00:30:48.637Z,18.66
2022-09-14T00:31:50.312Z,18.62
2022-09-14T00:32:51.938Z,18.69
2022-09-14T00:33:54.007Z,18.67
2022-09-14T00:34:55.489Z,18.70
2022-09-14T00:36:04.253Z,18.64
2022-09-14T00:37:05.751Z,18.34
2022-09-14T00:38:07.196Z,18.42
2022-09-14T00:39:09.479Z,18.43
2022-09-14T00:40:11.492Z,18.43
2022-09-14T00:41:18.388Z,18.43
2022-09-14T00:42:21.133Z,18.46
2022-09-14T00:43:22.559Z,18.43
2022-09-14T00:45:00.019Z,18.46
2022-09-14T00:46:02.149Z,18.45
2022-09-14T00:47:03.681Z,18.49
2022-09-14T00:48:05.230Z,18.50
2022-09-14T00:49:10.380Z,18.52
2022-09-14T00:50:12.182Z,18.49
2022-09-14T00:51:15.278Z,18.49
2022-09-14T00:52:20.113Z,18.52
2022-09-14T00:53:22.419Z,18.50
2022-09-14T00:54:24.443Z,18.46
2022-09-14T00:55:25.927Z,18.45
2022-09-14T00:56:27.438Z,18.40
2022-09-14T00:57:35.671Z,18.41
2022-09-14T00:58:37.717Z,18.45
2022-09-14T00:59:41.603Z,18.39
2022-09-14T01:00:43.101Z,18.43
2022-09-14T01:01:45.364Z,18.43
2022-09-14T01:02:46.951Z,18.43
2022-09-14T01:03:48.694Z,18.36
2022-09-14T01:04:51.667Z,18.41
2022-09-14T01:06:02.329Z,18.29
2022-09-14T01:07:09.727Z,18.36
2022-09-14T01:08:27.782Z,18.34
2022-09-14T01:09:35.262Z,18.20
2022-09-14T01:10:52.516Z,18.11
2022-09-14T01:12:09.522Z,18.11
2022-09-14T01:13:24.185Z,18.20
2022-09-14T01:14:32.115Z,18.27
2022-09-14T01:15:42.722Z,18.20
2022-09-14T01:16:51.778Z,18.23
2022-09-14T01:17:58.612Z,18.12
2022-09-14T01:19:03.912Z,18.16
2022-09-14T01:20:20.696Z,18.12
2022-09-14T01:21:26.463Z,18.13
2022-09-14T01:22:35.104Z,18.16
2022-09-14T01:23:46.984Z,17.99
2022-09-14T01:24:53.019Z,18.12
2022-09-14T01:26:28.217Z,18.09
2022-09-14T01:27:35.383Z,18.07
2022-09-14T01:28:43.588Z,18.04
2022-09-14T01:29:49.793Z,18.19
2022-09-14T01:30:53.970Z,18.15
2022-09-14T01:32:02.092Z,18.02
2022-09-14T01:33:09.695Z,18.19
2022-09-14T01:34:16.535Z,18.02
2022-09-14T01:35:25.843Z,17.87
2022-09-14T01:36:31.240Z,17.84
2022-09-14T01:37:36.637Z,17.76
2022-09-14T01:38:42.619Z,17.70
2022-09-14T01:39:48.807Z,17.73
2022-09-14T01:40:51.093Z,17.70
2022-09-14T01:41:55.460Z,17.53
2022-09-14T01:43:02.130Z,17.59
2022-09-14T01:44:09.325Z,17.68
2022-09-14T01:45:14.867Z,17.64
2022-09-14T01:46:19.336Z,17.53
2022-09-14T01:47:24.262Z,17.65
2022-09-14T01:48:35.279Z,17.61
2022-09-14T01:49:42.190Z,17.55
2022-09-14T01:50:46.202Z,17.48
2022-09-14T01:51:49.999Z,17.54
2022-09-14T01:52:57.869Z,17.55
2022-09-14T01:54:07.331Z,17.47
2022-09-14T01:55:15.108Z,17.51
2022-09-14T01:56:21.873Z,17.59
2022-09-14T01:57:28.639Z,17.49
2022-09-14T01:58:36.229Z,17.58
2022-09-14T01:59:40.933Z,17.69
2022-09-14T02:00:45.053Z,17.61
2022-09-14T02:01:51.849Z,17.68
2022-09-14T02:02:56.509Z,17.75
2022-09-14T02:04:04.168Z,17.64
2022-09-14T02:05:09.347Z,17.66
2022-09-14T02:06:19.329Z,17.73
2022-09-14T02:07:20.752Z,17.72
2022-09-14T02:08:22.699Z,17.75
2022-09-14T02:09:25.511Z,17.76
2022-09-14T02:10:27.301Z,17.79
2022-09-14T02:11:28.906Z,17.67
2022-09-14T02:12:30.626Z,17.66
2022-09-14T02:13:33.867Z,17.65
2022-09-14T02:14:35.712Z,17.75
2022-09-14T02:15:38.786Z,17.80
2022-09-14T02:16:40.695Z,17.63
2022-09-14T02:17:43.365Z,17.62
2022-09-14T02:18:44.887Z,17.75
2022-09-14T02:19:52.103Z,17.78
2022-09-14T02:20:55.857Z,17.74
2022-09-14T02:21:57.301Z,17.67
2022-09-14T02:22:59.313Z,17.57
2022-09-14T02:24:01.446Z,17.61
2022-09-14T02:25:03.775Z,17.68
2022-09-14T02:26:05.463Z,17.58
2022-09-14T02:27:07.700Z,17.67
2022-09-14T02:28:09.193Z,17.69
2022-09-14T02:29:12.242Z,17.69
2022-09-14T02:30:14.739Z,17.71
2022-09-14T02:31:23.913Z,17.69
2022-09-14T02:32:35.220Z,17.67
2022-09-14T02:33:41.464Z,17.72
2022-09-14T02:34:53.748Z,17.73
2022-09-14T02:36:00.058Z,17.75
2022-09-14T02:37:10.376Z,17.65
2022-09-14T02:38:21.378Z,17.73
2022-09-14T02:39:31.285Z,17.75
2022-09-14T02:40:35.925Z,17.75
2022-09-14T02:41:43.226Z,17.73
2022-09-14T02:42:55.123Z,17.75
2022-09-14T02:44:03.422Z,17.73
2022-09-14T02:45:16.997Z,17.61
2022-09-14T02:46:26.646Z,17.68
2022-09-14T02:47:33.317Z,17.66
2022-09-14T02:48:40.587Z,17.73
2022-09-14T02:49:48.771Z,17.73
2022-09-14T02:50:56.321Z,17.75
2022-09-14T02:52:07.463Z,17.76
2022-09-14T02:53:15.576Z,17.76
2022-09-14T02:54:24.339Z,17.72
2022-09-14T02:55:31.120Z,17.76
2022-09-14T02:56:34.789Z,17.74
2022-09-14T02:58:04.536Z,17.72
2022-09-14T02:59:05.980Z,17.78
2022-09-14T03:00:09.897Z,17.78
2022-09-14T03:01:13.474Z,17.74
2022-09-14T03:02:15.108Z,17.79
2022-09-14T03:03:19.016Z,17.83
2022-09-14T03:04:20.467Z,17.79
2022-09-14T03:05:22.106Z,17.74
2022-09-14T03:06:23.615Z,17.79
2022-09-14T03:07:25.092Z,17.76
2022-09-14T03:08:27.285Z,17.75
2022-09-14T03:09:28.733Z,17.82
2022-09-14T03:10:30.977Z,17.82
2022-09-14T03:11:32.417Z,17.88
2022-09-14T03:12:33.834Z,17.87
2022-09-14T03:13:36.021Z,17.94
2022-09-14T03:14:37.428Z,17.92
2022-09-14T03:15:40.437Z,17.87
2022-09-14T03:16:41.861Z,17.86
2022-09-14T03:17:46.624Z,17.85
2022-09-14T03:18:48.169Z,17.78
2022-09-14T03:19:49.619Z,17.86
2022-09-14T03:20:51.066Z,17.87
2022-09-14T03:21:52.512Z,17.89
2022-09-14T03:22:54.241Z,17.93
2022-09-14T03:23:55.660Z,17.95
2022-09-14T03:24:57.068Z,17.87
2022-09-14T03:25:58.483Z,17.89
2022-09-14T03:26:59.887Z,17.85
2022-09-14T03:28:01.471Z,17.99
2022-09-14T03:29:03.647Z,17.98
2022-09-14T03:30:05.969Z,18.05
2022-09-14T03:31:11.519Z,18.01
2022-09-14T03:32:13.000Z,17.97
2022-09-14T03:33:14.497Z,17.95
2022-09-14T03:34:16.172Z,18.05
2022-09-14T03:35:17.896Z,18.03
2022-09-14T03:36:20.127Z,18.00
2022-09-14T03:37:21.588Z,17.96
2022-09-14T03:38:23.108Z,18.02
2022-09-14T03:39:24.540Z,18.04
2022-09-14T03:40:26.924Z,18.06
2022-09-14T03:41:28.932Z,18.08
2022-09-14T03:42:30.665Z,18.11
2022-09-14T03:43:32.093Z,18.10
2022-09-14T03:44:33.514Z,18.11
2022-09-14T03:45:36.849Z,17.97
2022-09-14T03:46:39.735Z,17.86
2022-09-14T03:47:41.959Z,17.81
2022-09-14T03:48:44.283Z,17.73
2022-09-14T03:49:45.744Z,17.73
2022-09-14T03:50:47.173Z,17.75
2022-09-14T03:51:48.590Z,17.73
2022-09-14T03:52:49.995Z,17.76
2022-09-14T03:53:51.470Z,17.82
2022-09-14T03:54:52.932Z,17.76
2022-09-14T03:55:54.381Z,17.76
2022-09-14T03:56:55.833Z,17.71
2022-09-14T03:57:57.298Z,17.75
2022-09-14T03:58:58.715Z,17.75
2022-09-14T04:00:00.184Z,17.72
2022-09-14T04:01:05.420Z,17.62
2022-09-14T04:02:08.237Z,17.73
2022-09-14T04:03:09.803Z,17.71
2022-09-14T04:04:11.728Z,17.74
2022-09-14T04:05:13.194Z,17.62
2022-09-14T04:06:15.451Z,17.57
2022-09-14T04:07:17.366Z,17.61
2022-09-14T04:08:18.805Z,17.58
2022-09-14T04:09:20.372Z,17.60
2022-09-14T04:10:21.799Z,17.58
2022-09-14T04:11:24.835Z,17.60
2022-09-14T04:12:26.286Z,17.58
2022-09-14T04:13:27.740Z,17.64
2022-09-14T04:14:29.181Z,17.62
2022-09-14T04:15:30.619Z,17.54
2022-09-14T04:16:32.303Z,17.53
2022-09-14T04:17:35.532Z,17.65
2022-09-14T04:18:36.974Z,17.59
2022-09-14T04:19:38.398Z,17.66
2022-09-14T04:20:39.809Z,17.66
2022-09-14T04:21:41.343Z,17.64
2022-09-14T04:22:42.791Z,17.67
2022-09-14T04:24:13.483Z,17.62
2022-09-14T04:25:06.985Z,17.76
2022-09-14T04:26:10.255Z,17.76
2022-09-14T04:27:11.717Z,17.81
2022-09-14T04:28:20.869Z,17.79
2022-09-14T04:29:22.602Z,17.71
2022-09-14T04:30:24.044Z,17.70
2022-09-14T04:31:26.112Z,17.74
2022-09-14T04:32:32.058Z,17.71
2022-09-14T04:33:38.736Z,17.75
2022-09-14T04:34:40.202Z,17.76
2022-09-14T04:35:41.620Z,17.72
2022-09-14T04:36:43.126Z,17.73
2022-09-14T04:37:44.569Z,17.73
2022-09-14T04:38:46.731Z,17.66
2022-09-14T04:39:48.244Z,17.63
2022-09-14T04:40:49.833Z,17.63
2022-09-14T04:41:51.288Z,17.51
2022-09-14T04:42:52.761Z,17.62
2022-09-14T04:43:55.832Z,17.55
2022-09-14T04:44:57.285Z,17.62
2022-09-14T04:46:02.353Z,17.59
2022-09-14T04:47:04.157Z,17.60
2022-09-14T04:48:05.784Z,17.60
2022-09-14T04:49:09.320Z,17.57
2022-09-14T04:50:10.905Z,17.60
2022-09-14T04:51:14.124Z,17.64
2022-09-14T04:52:15.596Z,17.53
2022-09-14T04:53:17.083Z,17.62
2022-09-14T04:54:18.569Z,17.57
2022-09-14T04:55:19.983Z,17.52
2022-09-14T04:56:22.996Z,17.55
2022-09-14T04:57:24.441Z,17.60
2022-09-14T04:58:26.030Z,17.57
2022-09-14T04:59:27.537Z,17.63
2022-09-14T05:00:29.026Z,17.54
2022-09-14T05:01:32.375Z,17.65
2022-09-14T05:02:33.853Z,17.59
2022-09-14T05:03:35.802Z,17.53
2022-09-14T05:04:38.591Z,17.53
2022-09-14T05:05:44.216Z,17.57
2022-09-14T05:06:46.264Z,17.43
2022-09-14T05:07:47.673Z,17.36
2022-09-14T05:08:50.424Z,17.45
2022-09-14T05:09:51.892Z,17.40
2022-09-14T05:10:55.017Z,17.50
2022-09-14T05:11:56.467Z,17.44
2022-09-14T05:12:57.889Z,17.44
2022-09-14T05:14:00.785Z,17.42
2022-09-14T05:15:02.229Z,17.49
2022-09-14T05:16:07.803Z,17.50
2022-09-14T05:17:09.269Z,17.47
2022-09-14T05:18:10.734Z,17.44
2022-09-14T05:19:14.665Z,17.53
2022-09-14T05:20:17.472Z,17.55
2022-09-14T05:21:20.543Z,17.48
2022-09-14T05:22:21.991Z,17.44
2022-09-14T05:23:23.436Z,17.42
2022-09-14T05:24:25.259Z,17.44
2022-09-14T05:25:26.687Z,17.41
2022-09-14T05:26:30.112Z,17.34
2022-09-14T05:27:31.547Z,17.36
2022-09-14T05:28:34.111Z,17.29
2022-09-14T05:29:35.596Z,17.27
2022-09-14T05:30:39.457Z,17.18
2022-09-14T05:31:41.005Z,17.23
2022-09-14T05:32:42.538Z,17.19
2022-09-14T05:33:44.065Z,17.17
2022-09-14T05:34:45.522Z,17.17
2022-09-14T05:35:49.428Z,17.23
2022-09-14T05:36:50.913Z,17.14
2022-09-14T05:37:52.325Z,17.15
2022-09-14T05:38:53.787Z,17.23
2022-09-14T05:39:55.272Z,17.19
2022-09-14T05:40:57.062Z,17.24
2022-09-14T05:41:58.499Z,17.22
2022-09-14T05:42:59.946Z,17.18
2022-09-14T05:44:01.638Z,17.06
2022-09-14T05:45:03.551Z,17.19
2022-09-14T05:46:06.865Z,17.26
2022-09-14T05:47:08.378Z,17.19
2022-09-14T05:48:09.812Z,17.23
2022-09-14T05:49:11.294Z,17.23
2022-09-14T05:50:12.744Z,17.16
2022-09-14T05:51:17.953Z,17.22
2022-09-14T05:52:19.401Z,17.26
2022-09-14T05:53:20.812Z,17.10
2022-09-14T05:54:22.276Z,17.24
2022-09-14T05:55:23.756Z,17.31
2022-09-14T05:56:27.309Z,17.38
2022-09-14T05:57:28.741Z,17.41
2022-09-14T05:58:30.439Z,17.36
2022-09-14T05:59:31.921Z,17.41
2022-09-14T06:00:33.398Z,17.47
2022-09-14T06:01:34.890Z,17.33
2022-09-14T06:02:36.373Z,17.46
2022-09-14T06:03:38.096Z,17.55
2022-09-14T06:04:39.519Z,17.51
2022-09-14T06:05:41.060Z,17.55
2022-09-14T06:06:52.258Z,17.59
2022-09-14T06:08:05.351Z,17.64
2022-09-14T06:09:06.761Z,17.61
2022-09-14T06:10:08.698Z,17.70
2022-09-14T06:11:12.292Z,17.73
2022-09-14T06:12:13.803Z,17.74
2022-09-14T06:13:15.315Z,17.66
2022-09-14T06:14:16.768Z,17.78
2022-09-14T06:15:18.234Z,17.84
2022-09-14T06:16:21.419Z,17.82
2022-09-14T06:17:23.033Z,17.76
2022-09-14T06:18:24.460Z,17.70
2022-09-14T06:19:25.935Z,17.77
2022-09-14T06:20:27.414Z,17.79
2022-09-14T06:21:30.565Z,17.73
2022-09-14T06:22:33.486Z,17.85
2022-09-14T06:23:35.268Z,17.85
2022-09-14T06:24:36.736Z,17.85
2022-09-14T06:25:38.199Z,17.85
2022-09-14T06:26:40.373Z,17.76
2022-09-14T06:27:41.804Z,17.81
2022-09-14T06:28:43.533Z,17.78
2022-09-14T06:29:44.991Z,17.76
2022-09-14T06:30:46.457Z,17.84
2022-09-14T06:31:47.856Z,17.73
2022-09-14T06:32:49.296Z,17.79
2022-09-14T06:33:51.787Z,17.75
2022-09-14T06:34:53.239Z,17.54
2022-09-14T06:35:55.915Z,17.78
2022-09-14T06:36:57.379Z,17.84
2022-09-14T06:38:00.147Z,17.74
2022-09-14T06:39:01.588Z,17.85
2022-09-14T06:40:04.139Z,17.82
2022-09-14T06:41:07.795Z,17.95
2022-09-14T06:42:09.236Z,18.07
2022-09-14T06:43:10.661Z,18.04
2022-09-14T06:44:12.158Z,18.14
2022-09-14T06:45:13.647Z,18.05
2022-09-14T06:46:16.824Z,17.95
2022-09-14T06:47:18.276Z,18.14
2022-09-14T06:48:19.701Z,18.14
2022-09-14T06:49:21.134Z,18.22
2022-09-14T06:50:22.842Z,18.16
2022-09-14T06:51:27.498Z,18.24
2022-09-14T06:52:33.585Z,18.26
2022-09-14T06:53:36.609Z,18.31
2022-09-14T06:54:38.079Z,18.32
2022-09-14T06:55:39.520Z,18.19
2022-09-14T06:56:42.416Z,18.28
2022-09-14T06:57:43.881Z,18.28
2022-09-14T06:58:45.932Z,18.28
2022-09-14T06:59:47.364Z,18.41
2022-09-14T07:00:48.814Z,18.21
2022-09-14T07:01:50.333Z,18.37
2022-09-14T07:02:55.507Z,18.47
2022-09-14T07:03:57.565Z,18.41
2022-09-14T07:04:59.032Z,18.44
2022-09-14T07:06:04.877Z,18.44
2022-09-14T07:07:06.300Z,18.53
2022-09-14T07:08:11.939Z,18.42
2022-09-14T07:09:16.234Z,18.53
2022-09-14T07:10:17.701Z,18.58
2022-09-14T07:11:21.944Z,18.67
2022-09-14T07:12:23.388Z,18.69
2022-09-14T07:13:25.069Z,18.76
2022-09-14T07:14:30.349Z,18.86
2022-09-14T07:15:33.697Z,18.83
2022-09-14T07:16:36.351Z,18.91
2022-09-14T07:17:37.781Z,19.01
2022-09-14T07:18:39.945Z,19.10
2022-09-14T07:19:41.421Z,19.16
2022-09-14T07:20:42.849Z,19.15
2022-09-14T07:21:44.316Z,19.15
2022-09-14T07:22:45.748Z,19.18
2022-09-14T07:23:48.007Z,19.18
2022-09-14T07:24:50.758Z,19.37
2022-09-14T07:26:00.242Z,19.31
2022-09-14T07:27:02.419Z,19.34
2022-09-14T07:28:03.874Z,19.40
2022-09-14T07:29:07.870Z,19.37
2022-09-14T07:30:10.128Z,19.47
2022-09-14T07:31:18.405Z,19.44
2022-09-14T07:32:20.056Z,19.56
2022-09-14T07:33:21.533Z,19.56
2022-09-14T07:34:23.059Z,19.62
2022-09-14T07:35:24.460Z,19.66
2022-09-14T07:36:29.538Z,19.63
2022-09-14T07:37:34.144Z,19.72
2022-09-14T07:38:51.543Z,19.65
2022-09-14T07:39:55.341Z,19.45
2022-09-14T07:40:57.619Z,19.68
2022-09-14T07:41:59.087Z,19.63
2022-09-14T07:43:00.501Z,19.74
2022-09-14T07:44:03.754Z,19.77
2022-09-14T07:45:06.381Z,19.73
2022-09-14T07:46:08.129Z,19.84
2022-09-14T07:47:09.656Z,19.80
2022-09-14T07:48:11.191Z,19.80
2022-09-14T07:49:13.846Z,19.83
2022-09-14T07:50:15.455Z,19.85
2022-09-14T07:51:16.880Z,19.85
2022-09-14T07:52:18.340Z,19.83
2022-09-14T07:53:19.843Z,19.85
2022-09-14T07:54:21.292Z,19.83
2022-09-14T07:55:24.106Z,19.80
2022-09-14T07:56:25.675Z,19.79
2022-09-14T07:57:52.332Z,19.85
2022-09-14T07:58:55.481Z,19.90
2022-09-14T07:59:59.907Z,19.85
2022-09-14T08:01:04.188Z,19.97
2022-09-14T08:02:07.111Z,20.04
2022-09-14T08:03:08.677Z,20.14
2022-09-14T08:04:10.101Z,20.38
2022-09-14T08:05:11.624Z,20.33
2022-09-14T08:06:14.912Z,20.31
2022-09-14T08:07:16.406Z,20.31
2022-09-14T08:08:17.843Z,20.50
2022-09-14T08:09:19.268Z,20.41
2022-09-14T08:10:20.825Z,20.58
2022-09-14T08:11:25.613Z,20.71
2022-09-14T08:12:27.087Z,20.67
2022-09-14T08:13:28.525Z,20.81
2022-09-14T08:14:29.952Z,20.84
2022-09-14T08:15:31.374Z,20.96
2022-09-14T08:16:34.087Z,21.03
2022-09-14T08:17:35.635Z,20.98
2022-09-14T08:18:37.890Z,20.91
2022-09-14T08:19:39.379Z,21.00
2022-09-14T08:20:40.824Z,20.93
2022-09-14T08:21:46.591Z,21.21
2022-09-14T08:22:48.603Z,21.33
2022-09-14T08:23:50.143Z,20.99
2022-09-14T08:24:51.556Z,21.44
2022-09-14T08:25:52.995Z,21.54
2022-09-14T08:26:55.878Z,21.53
2022-09-14T08:27:57.352Z,21.71
2022-09-14T08:28:58.871Z,21.81
2022-09-14T08:30:00.364Z,22.07
2022-09-14T08:31:03.585Z,22.15
2022-09-14T08:32:05.525Z,22.03
2022-09-14T08:33:07.295Z,22.09
2022-09-14T08:34:08.726Z,22.11
2022-09-14T08:35:10.142Z,22.31
2022-09-14T08:36:14.157Z,22.04
2022-09-14T08:37:15.621Z,22.34
2022-09-14T08:38:17.050Z,22.35
2022-09-14T08:39:18.820Z,22.33
2022-09-14T08:40:20.388Z,22.31
2022-09-14T08:42:30.275Z,22.45
2022-09-14T08:43:32.735Z,22.46
2022-09-14T08:44:40.466Z,22.43
2022-09-14T08:45:43.661Z,22.43
2022-09-14T08:46:48.002Z,22.44
2022-09-14T08:47:51.601Z,22.40
2022-09-14T08:48:53.747Z,22.50
2022-09-14T08:50:01.380Z,22.64
2022-09-14T08:51:04.857Z,22.34
2022-09-14T08:52:13.294Z,22.42
2022-09-14T08:53:14.737Z,22.44
2022-09-14T08:54:16.234Z,22.43
2022-09-14T08:55:29.789Z,22.50
2022-09-14T08:56:33.883Z,22.33
2022-09-14T08:57:43.549Z,22.55
2022-09-14T08:58:57.945Z,22.78
2022-09-14T09:00:06.614Z,23.10
2022-09-14T09:01:22.456Z,23.04
2022-09-14T09:02:36.025Z,23.11
2022-09-14T09:03:56.637Z,23.10
2022-09-14T09:05:03.635Z,22.82
2022-09-14T09:06:15.813Z,22.96
2022-09-14T09:07:22.455Z,23.05
2022-09-14T09:08:34.447Z,23.04
2022-09-14T09:09:42.714Z,23.08
2022-09-14T09:10:46.309Z,23.04
2022-09-14T09:11:51.492Z,23.08
2022-09-14T09:12:57.231Z,23.09
2022-09-14T09:13:59.483Z,22.81
2022-09-14T09:15:04.668Z,22.77
2022-09-14T09:16:09.060Z,22.59
2022-09-14T09:17:15.375Z,22.63
2022-09-14T09:18:22.345Z,22.63
2022-09-14T09:19:28.929Z,22.67
2022-09-14T09:20:33.391Z,22.57
2022-09-14T09:21:40.695Z,22.07
2022-09-14T09:22:44.886Z,22.38
2022-09-14T09:23:46.622Z,22.28
2022-09-14T09:24:52.444Z,22.42
2022-09-14T09:25:59.471Z,22.31
2022-09-14T09:27:01.107Z,22.34
2022-09-14T09:28:11.737Z,22.39
2022-09-14T09:29:13.218Z,22.21
2022-09-14T09:30:15.687Z,22.37
2022-09-14T09:31:19.309Z,22.36
2022-09-14T09:32:23.246Z,22.47
2022-09-14T09:33:27.162Z,22.54
2022-09-14T09:34:29.971Z,22.33
2022-09-14T09:35:32.297Z,22.30
2022-09-14T09:36:36.898Z,22.48
2022-09-14T09:37:39.706Z,22.27
2022-09-14T09:38:41.520Z,22.36
2022-09-14T09:39:44.295Z,22.42
2022-09-14T09:40:49.018Z,22.57
2022-09-14T09:41:55.853Z,22.18
2022-09-14T09:43:10.571Z,22.25
2022-09-14T09:44:12.215Z,22.12
2022-09-14T09:45:13.844Z,22.38
2022-09-14T09:46:15.446Z,22.43
2022-09-14T09:47:24.527Z,22.42
2022-09-14T09:48:31.201Z,22.66
2022-09-14T09:49:36.741Z,22.51
2022-09-14T09:50:47.189Z,22.28
2022-09-14T09:51:49.183Z,22.29
2022-09-14T09:52:53.189Z,21.97
2022-09-14T09:53:57.378Z,21.97
2022-09-14T09:55:00.032Z,22.21
2022-09-14T09:56:02.272Z,21.92
2022-09-14T09:57:06.687Z,21.81
2022-09-14T09:58:27.203Z,21.66
2022-09-14T09:59:32.023Z,22.04
2022-09-14T10:00:33.563Z,22.08
2022-09-14T10:01:35.870Z,21.99
2022-09-14T10:02:37.516Z,21.92
2022-09-14T10:03:40.531Z,22.03
2022-09-14T10:04:57.555Z,22.20
2022-09-14T10:07:21.337Z,22.12
2022-09-14T10:08:22.813Z,21.98
2022-09-14T10:09:26.630Z,21.88
2022-09-14T10:10:41.681Z,21.95
2022-09-14T10:11:43.861Z,22.37
2022-09-14T10:12:49.666Z,22.11
2022-09-14T10:13:52.516Z,22.31
2022-09-14T10:15:15.796Z,22.72
2022-09-14T10:16:19.767Z,22.96
2022-09-14T10:17:23.082Z,22.64
2022-09-14T10:18:27.143Z,22.28
2022-09-14T10:19:28.848Z,22.35
2022-09-14T10:20:30.377Z,22.58
2022-09-14T10:21:31.822Z,22.42
2022-09-14T10:22:34.718Z,22.58
2022-09-14T10:23:37.434Z,22.64
2022-09-14T10:24:39.023Z,22.72
2022-09-14T10:25:40.581Z,22.90
2022-09-14T10:26:42.071Z,22.93
2022-09-14T10:27:47.180Z,23.08
2022-09-14T10:28:50.390Z,23.05
2022-09-14T10:29:55.727Z,22.86
2022-09-14T10:31:02.243Z,22.87
2022-09-14T10:32:14.937Z,22.65
2022-09-14T10:33:17.033Z,22.65
2022-09-14T10:34:19.852Z,22.86
2022-09-14T10:35:23.962Z,22.87
2022-09-14T10:36:29.145Z,23.06
2022-09-14T10:37:36.092Z,23.19
2022-09-14T10:38:42.465Z,23.21
2022-09-14T10:39:51.498Z,23.08
2022-09-14T10:41:05.116Z,23.30
2022-09-14T10:42:17.500Z,23.10
2022-09-14T10:43:26.849Z,23.04
2022-09-14T10:44:45.951Z,23.03
2022-09-14T10:45:55.311Z,22.99
2022-09-14T10:47:15.696Z,23.08
2022-09-14T10:48:40.832Z,23.08
2022-09-14T10:49:53.924Z,22.96
2022-09-14T10:51:02.717Z,23.02
2022-09-14T10:52:14.713Z,23.17
2022-09-14T10:53:28.027Z,23.03
2022-09-14T10:54:50.516Z,23.03
2022-09-14T10:55:59.576Z,23.21
2022-09-14T10:57:13.402Z,23.32
2022-09-14T10:58:29.070Z,23.43
2022-09-14T10:59:36.877Z,23.35
2022-09-14T11:00:45.330Z,23.26
2022-09-14T11:02:09.382Z,23.17
2022-09-14T11:03:23.968Z,22.96
2022-09-14T11:04:43.174Z,23.08
2022-09-14T11:05:52.071Z,23.19
2022-09-14T11:07:00.949Z,23.33
2022-09-14T11:08:12.667Z,23.38
2022-09-14T11:09:21.392Z,23.40
2022-09-14T11:10:31.547Z,23.35
2022-09-14T11:11:44.111Z,23.22
2022-09-14T11:12:55.462Z,23.03
2022-09-14T11:14:12.031Z,22.99
2022-09-14T11:15:24.980Z,23.08
2022-09-14T11:16:52.565Z,22.88
2022-09-14T11:18:12.729Z,23.01
2022-09-14T11:19:25.190Z,22.83
2022-09-14T11:20:37.455Z,23.06
2022-09-14T11:21:46.343Z,23.00
2022-09-14T11:22:58.394Z,23.00
2022-09-14T11:24:06.314Z,23.10
2022-09-14T11:25:13.827Z,23.12
2022-09-14T11:26:22.261Z,23.05
2022-09-14T11:27:28.453Z,23.07
2022-09-14T11:28:34.844Z,22.86
2022-09-14T11:29:44.155Z,22.95
2022-09-14T11:30:50.562Z,22.89
2022-09-14T11:32:16.894Z,22.75
2022-09-14T11:33:22.808Z,22.82
2022-09-14T11:34:27.840Z,23.01
2022-09-14T11:35:34.075Z,22.83
2022-09-14T11:36:41.173Z,22.86
2022-09-14T11:37:48.261Z,23.15
2022-09-14T11:38:55.430Z,23.29
2022-09-14T11:40:04.986Z,23.24
2022-09-14T11:41:17.715Z,22.99
2022-09-14T11:42:24.003Z,23.06
2022-09-14T11:43:35.515Z,22.95
2022-09-14T11:44:38.428Z,23.05
2022-09-14T11:45:44.868Z,23.01
2022-09-14T11:46:50.450Z,23.05
2022-09-14T11:47:59.232Z,22.96
2022-09-14T11:49:09.610Z,22.76
2022-09-14T11:50:18.381Z,23.20
2022-09-14T11:51:24.080Z,23.36
2022-09-14T11:52:27.540Z,23.26
2022-09-14T11:53:30.766Z,23.23
2022-09-14T11:54:32.299Z,23.16
2022-09-14T11:55:34.814Z,23.03
2022-09-14T11:56:36.372Z,22.96
2022-09-14T11:57:38.136Z,22.90
2022-09-14T11:58:39.722Z,22.85
2022-09-14T11:59:52.716Z,23.01
2022-09-14T12:01:25.469Z,23.11
2022-09-14T12:02:58.281Z,22.95
2022-09-14T12:04:10.588Z,23.07
2022-09-14T12:05:28.937Z,23.25
2022-09-14T12:06:55.555Z,23.50
2022-09-14T12:08:32.148Z,23.27
2022-09-14T12:09:53.964Z,23.29
2022-09-14T12:11:04.825Z,23.02
2022-09-14T12:12:34.252Z,23.06
2022-09-14T12:13:36.884Z,23.10
2022-09-14T12:14:40.411Z,23.17
2022-09-14T12:15:42.463Z,23.12
2022-09-14T12:17:22.787Z,22.95
2022-09-14T12:18:28.536Z,23.04
2022-09-14T12:19:31.851Z,23.01
2022-09-14T12:20:42.767Z,22.87
2022-09-14T12:21:44.420Z,23.12
2022-09-14T12:22:50.007Z,23.21
2022-09-14T12:23:53.364Z,23.25
2022-09-14T12:25:00.372Z,23.27
2022-09-14T12:26:14.813Z,23.25
2022-09-14T12:27:22.172Z,22.91
2022-09-14T12:28:29.739Z,23.00
2022-09-14T12:29:33.499Z,22.80
2022-09-14T12:31:12.225Z,22.61
2022-09-14T12:32:37.803Z,22.31
2022-09-14T12:33:44.336Z,22.06
2022-09-14T12:35:08.057Z,21.90
2022-09-14T12:36:11.200Z,21.79
2022-09-14T12:37:31.552Z,21.65
2022-09-14T12:38:41.573Z,21.55
2022-09-14T12:40:34.580Z,21.56
2022-09-14T12:42:25.476Z,21.57
2022-09-14T12:43:53.107Z,21.69
2022-09-14T12:44:54.645Z,21.57
2022-09-14T12:46:01.145Z,21.77
2022-09-14T12:47:40.214Z,21.91
2022-09-14T12:49:02.964Z,21.55
2022-09-14T12:50:12.300Z,21.61
2022-09-14T12:51:22.404Z,21.53
2022-09-14T12:52:35.599Z,21.52
2022-09-14T12:53:37.150Z,21.43
2022-09-14T12:54:53.394Z,21.63
2022-09-14T12:56:01.529Z,21.61
2022-09-14T12:57:16.384Z,21.67
2022-09-14T12:58:30.917Z,21.73
2022-09-14T12:59:43.937Z,21.48
2022-09-14T13:00:55.513Z,21.32
2022-09-14T13:02:05.157Z,21.40
2022-09-14T13:03:26.139Z,21.39
2022-09-14T13:04:29.999Z,21.41
2022-09-14T13:05:34.244Z,21.40
2022-09-14T13:06:42.705Z,21.36
2022-09-14T13:07:45.272Z,21.41
2022-09-14T13:08:49.096Z,21.20
2022-09-14T13:09:54.612Z,21.13
2022-09-14T13:10:56.145Z,21.16
2022-09-14T13:12:00.457Z,21.13
2022-09-14T13:13:05.547Z,21.39
2022-09-14T13:14:16.152Z,21.36
2022-09-14T13:15:21.566Z,21.23
2022-09-14T13:16:36.181Z,21.22
2022-09-14T13:17:54.797Z,21.14
2022-09-14T13:19:00.726Z,21.22
2022-09-14T13:20:05.119Z,21.39
2022-09-14T13:21:20.244Z,21.44
2022-09-14T13:22:23.567Z,21.30
2022-09-14T13:23:29.108Z,21.09
2022-09-14T13:24:35.607Z,21.06
2022-09-14T13:25:38.469Z,21.09
2022-09-14T13:26:40.177Z,21.13
2022-09-14T13:27:49.726Z,21.23
2022-09-14T13:28:54.031Z,21.36
2022-09-14T13:30:01.925Z,21.03
2022-09-14T13:31:03.592Z,20.87
2022-09-14T13:32:06.601Z,20.98
2022-09-14T13:33:16.364Z,20.70
2022-09-14T13:34:21.761Z,20.82
2022-09-14T13:35:29.192Z,20.79
2022-09-14T13:36:36.469Z,20.49
2022-09-14T13:37:38.714Z,20.49
2022-09-14T13:38:42.631Z,20.49
2022-09-14T13:39:49.859Z,20.41
2022-09-14T13:40:54.701Z,20.37
2022-09-14T13:41:57.363Z,20.40
2022-09-14T13:42:59.531Z,20.38
2022-09-14T13:44:01.132Z,20.47
2022-09-14T13:45:04.363Z,20.78
2022-09-14T13:46:07.319Z,20.73
2022-09-14T13:47:12.669Z,20.68
2022-09-14T13:48:16.367Z,20.90
2022-09-14T13:49:18.085Z,20.74
2022-09-14T13:50:21.451Z,20.88
2022-09-14T13:51:25.096Z,20.86
2022-09-14T13:52:50.055Z,20.96
2022-09-14T13:53:54.775Z,20.86
2022-09-14T13:55:12.081Z,20.77
2022-09-14T13:56:22.478Z,20.83
2022-09-14T13:57:24.976Z,20.87
2022-09-14T13:58:26.449Z,20.98
2022-09-14T13:59:27.874Z,20.82
2022-09-14T14:00:30.312Z,21.01
2022-09-14T14:01:32.756Z,20.88
2022-09-14T14:02:36.576Z,20.75
2022-09-14T14:03:40.440Z,20.66
2022-09-14T14:04:48.244Z,20.51